sensor_id;sensor_type;location;lat;lon;timestamp;P1;durP1;ratioP1;P2;durP2;ratioP2
9032;SDS011;4551;53.164;8.210;2022-08-21T00:00:30;4.20;;;2.70;;
9032;SDS011;4551;53.164;8.210;2022-08-21T00:03:00;4.57;;;3.10;;
9032;SDS011;4551;53.164;8.210;2022-08-21T00:05:31;4.93;;;2.93;;
9032;SDS011;4551;53.164;8.210;2022-08-21T00:08:00;4.23;;;2.57;;
9032;SDS011;4551;53.164;8.210;2022-08-21T00:10:29;3.57;;;2.77;;
9032;SDS011;4551;53.164;8.210;2022-08-21T00:12:57;4.57;;;3.10;;
9032;SDS011;4551;53.164;8.210;2022-08-21T00:15:28;5.47;;;2.97;;
9032;SDS011;4551;53.164;8.210;2022-08-21T00:17:57;5.80;;;3.00;;
9032;SDS011;4551;53.164;8.210;2022-08-21T00:20:27;5.73;;;2.97;;
9032;SDS011;4551;53.164;8.210;2022-08-21T00:22:56;4.67;;;2.87;;
9032;SDS011;4551;53.164;8.210;2022-08-21T00:25:24;4.27;;;3.23;;
9032;SDS011;4551;53.164;8.210;2022-08-21T00:27:53;4.63;;;2.93;;
9032;SDS011;4551;53.164;8.210;2022-08-21T00:30:23;4.47;;;2.77;;
9032;SDS011;4551;53.164;8.210;2022-08-21T00:32:53;5.23;;;2.63;;
9032;SDS011;4551;53.164;8.210;2022-08-21T00:35:25;4.50;;;2.57;;
9032;SDS011;4551;53.164;8.210;2022-08-21T00:37:55;4.60;;;2.70;;
9032;SDS011;4551;53.164;8.210;2022-08-21T00:40:25;4.00;;;2.60;;
9032;SDS011;4551;53.164;8.210;2022-08-21T00:42:55;5.53;;;2.87;;
9032;SDS011;4551;53.164;8.210;2022-08-21T00:45:24;7.37;;;3.10;;
9032;SDS011;4551;53.164;8.210;2022-08-21T00:47:54;2.90;;;2.40;;
9032;SDS011;4551;53.164;8.210;2022-08-21T00:50:23;3.20;;;2.60;;
9032;SDS011;4551;53.164;8.210;2022-08-21T00:52:56;6.73;;;3.73;;
9032;SDS011;4551;53.164;8.210;2022-08-21T00:55:25;3.67;;;2.70;;
9032;SDS011;4551;53.164;8.210;2022-08-21T00:57:58;5.30;;;2.80;;
9032;SDS011;4551;53.164;8.210;2022-08-21T01:00:29;3.77;;;3.10;;
9032;SDS011;4551;53.164;8.210;2022-08-21T01:03:00;3.63;;;3.20;;
9032;SDS011;4551;53.164;8.210;2022-08-21T01:05:35;4.00;;;2.90;;
9032;SDS011;4551;53.164;8.210;2022-08-21T01:08:07;4.27;;;3.20;;
9032;SDS011;4551;53.164;8.210;2022-08-21T01:10:36;6.00;;;2.70;;
9032;SDS011;4551;53.164;8.210;2022-08-21T01:13:05;5.53;;;2.87;;
9032;SDS011;4551;53.164;8.210;2022-08-21T01:15:36;4.10;;;2.93;;
9032;SDS011;4551;53.164;8.210;2022-08-21T01:18:08;3.27;;;2.97;;
9032;SDS011;4551;53.164;8.210;2022-08-21T01:20:41;3.43;;;2.83;;
9032;SDS011;4551;53.164;8.210;2022-08-21T01:23:17;6.90;;;3.13;;
9032;SDS011;4551;53.164;8.210;2022-08-21T01:25:45;3.43;;;2.70;;
9032;SDS011;4551;53.164;8.210;2022-08-21T01:28:13;4.50;;;2.67;;
9032;SDS011;4551;53.164;8.210;2022-08-21T01:30:42;3.53;;;2.60;;
9032;SDS011;4551;53.164;8.210;2022-08-21T01:33:11;4.20;;;3.37;;
9032;SDS011;4551;53.164;8.210;2022-08-21T01:35:39;3.37;;;2.47;;
9032;SDS011;4551;53.164;8.210;2022-08-21T01:38:07;2.80;;;2.37;;
9032;SDS011;4551;53.164;8.210;2022-08-21T01:40:36;3.43;;;2.40;;
9032;SDS011;4551;53.164;8.210;2022-08-21T01:43:05;5.67;;;2.83;;
9032;SDS011;4551;53.164;8.210;2022-08-21T01:45:33;4.30;;;2.60;;
9032;SDS011;4551;53.164;8.210;2022-08-21T01:48:01;5.33;;;2.60;;
9032;SDS011;4551;53.164;8.210;2022-08-21T01:50:29;3.50;;;2.40;;
9032;SDS011;4551;53.164;8.210;2022-08-21T01:52:58;5.07;;;2.50;;
9032;SDS011;4551;53.164;8.210;2022-08-21T01:55:27;7.23;;;2.50;;
9032;SDS011;4551;53.164;8.210;2022-08-21T01:57:56;4.63;;;2.93;;
9032;SDS011;4551;53.164;8.210;2022-08-21T02:00:26;2.87;;;2.30;;
9032;SDS011;4551;53.164;8.210;2022-08-21T02:02:55;5.43;;;2.70;;
9032;SDS011;4551;53.164;8.210;2022-08-21T02:05:23;4.30;;;2.53;;
9032;SDS011;4551;53.164;8.210;2022-08-21T02:07:52;5.00;;;2.67;;
9032;SDS011;4551;53.164;8.210;2022-08-21T02:10:22;3.90;;;2.73;;
9032;SDS011;4551;53.164;8.210;2022-08-21T02:12:53;5.67;;;2.63;;
9032;SDS011;4551;53.164;8.210;2022-08-21T02:15:23;3.57;;;2.50;;
9032;SDS011;4551;53.164;8.210;2022-08-21T02:17:52;3.87;;;2.63;;
9032;SDS011;4551;53.164;8.210;2022-08-21T02:20:23;4.73;;;3.13;;
9032;SDS011;4551;53.164;8.210;2022-08-21T02:22:53;7.47;;;3.23;;
9032;SDS011;4551;53.164;8.210;2022-08-21T02:25:22;3.70;;;2.60;;
9032;SDS011;4551;53.164;8.210;2022-08-21T02:27:52;3.80;;;2.50;;
9032;SDS011;4551;53.164;8.210;2022-08-21T02:30:22;4.63;;;2.80;;
9032;SDS011;4551;53.164;8.210;2022-08-21T02:32:53;5.20;;;2.67;;
9032;SDS011;4551;53.164;8.210;2022-08-21T02:35:21;3.77;;;2.73;;
9032;SDS011;4551;53.164;8.210;2022-08-21T02:37:51;4.17;;;2.50;;
9032;SDS011;4551;53.164;8.210;2022-08-21T02:40:27;4.27;;;2.63;;
9032;SDS011;4551;53.164;8.210;2022-08-21T02:42:57;4.10;;;2.40;;
9032;SDS011;4551;53.164;8.210;2022-08-21T02:45:28;7.90;;;2.77;;
9032;SDS011;4551;53.164;8.210;2022-08-21T02:47:57;4.47;;;2.70;;
9032;SDS011;4551;53.164;8.210;2022-08-21T02:50:30;5.17;;;3.47;;
9032;SDS011;4551;53.164;8.210;2022-08-21T02:53:00;5.07;;;2.73;;
9032;SDS011;4551;53.164;8.210;2022-08-21T02:55:30;5.50;;;2.90;;
9032;SDS011;4551;53.164;8.210;2022-08-21T02:57:59;4.10;;;2.53;;
9032;SDS011;4551;53.164;8.210;2022-08-21T03:00:30;5.43;;;3.20;;
9032;SDS011;4551;53.164;8.210;2022-08-21T03:02:59;4.47;;;2.70;;
9032;SDS011;4551;53.164;8.210;2022-08-21T03:05:28;3.80;;;2.80;;
9032;SDS011;4551;53.164;8.210;2022-08-21T03:07:58;2.87;;;2.27;;
9032;SDS011;4551;53.164;8.210;2022-08-21T03:10:28;5.17;;;3.00;;
9032;SDS011;4551;53.164;8.210;2022-08-21T03:12:57;5.70;;;3.50;;
9032;SDS011;4551;53.164;8.210;2022-08-21T03:15:25;5.97;;;3.37;;
9032;SDS011;4551;53.164;8.210;2022-08-21T03:17:55;4.87;;;3.10;;
9032;SDS011;4551;53.164;8.210;2022-08-21T03:20:24;5.13;;;2.93;;
9032;SDS011;4551;53.164;8.210;2022-08-21T03:22:54;8.33;;;3.00;;
9032;SDS011;4551;53.164;8.210;2022-08-21T03:25:24;5.83;;;3.07;;
9032;SDS011;4551;53.164;8.210;2022-08-21T03:28:07;5.37;;;3.33;;
9032;SDS011;4551;53.164;8.210;2022-08-21T03:30:39;6.17;;;3.30;;
9032;SDS011;4551;53.164;8.210;2022-08-21T03:33:09;5.77;;;3.13;;
9032;SDS011;4551;53.164;8.210;2022-08-21T03:35:40;3.40;;;2.70;;
9032;SDS011;4551;53.164;8.210;2022-08-21T03:38:09;5.30;;;3.20;;
9032;SDS011;4551;53.164;8.210;2022-08-21T03:40:39;4.53;;;3.07;;
9032;SDS011;4551;53.164;8.210;2022-08-21T03:43:08;13.40;;;4.10;;
9032;SDS011;4551;53.164;8.210;2022-08-21T03:45:36;3.60;;;3.30;;
9032;SDS011;4551;53.164;8.210;2022-08-21T03:48:05;4.80;;;3.13;;
9032;SDS011;4551;53.164;8.210;2022-08-21T03:50:38;5.27;;;3.13;;
9032;SDS011;4551;53.164;8.210;2022-08-21T03:53:07;3.63;;;3.23;;
9032;SDS011;4551;53.164;8.210;2022-08-21T03:55:43;5.60;;;3.10;;
9032;SDS011;4551;53.164;8.210;2022-08-21T03:58:12;5.13;;;3.00;;
9032;SDS011;4551;53.164;8.210;2022-08-21T04:00:42;3.73;;;3.40;;
9032;SDS011;4551;53.164;8.210;2022-08-21T04:03:11;5.87;;;3.63;;
9032;SDS011;4551;53.164;8.210;2022-08-21T04:05:41;4.77;;;4.20;;
9032;SDS011;4551;53.164;8.210;2022-08-21T04:08:12;4.53;;;4.13;;
9032;SDS011;4551;53.164;8.210;2022-08-21T04:10:41;4.60;;;4.10;;
9032;SDS011;4551;53.164;8.210;2022-08-21T04:13:11;6.50;;;4.10;;
9032;SDS011;4551;53.164;8.210;2022-08-21T04:15:40;4.60;;;4.20;;
9032;SDS011;4551;53.164;8.210;2022-08-21T04:18:09;5.63;;;4.13;;
9032;SDS011;4551;53.164;8.210;2022-08-21T04:20:38;5.67;;;4.80;;
9032;SDS011;4551;53.164;8.210;2022-08-21T04:23:15;6.23;;;4.37;;
9032;SDS011;4551;53.164;8.210;2022-08-21T04:25:50;6.27;;;4.60;;
9032;SDS011;4551;53.164;8.210;2022-08-21T04:28:19;7.70;;;5.07;;
9032;SDS011;4551;53.164;8.210;2022-08-21T04:30:48;6.37;;;5.07;;
9032;SDS011;4551;53.164;8.210;2022-08-21T04:33:18;5.33;;;4.83;;
9032;SDS011;4551;53.164;8.210;2022-08-21T04:35:47;8.00;;;5.00;;
9032;SDS011;4551;53.164;8.210;2022-08-21T04:38:17;6.57;;;5.10;;
9032;SDS011;4551;53.164;8.210;2022-08-21T04:40:46;7.97;;;5.30;;
9032;SDS011;4551;53.164;8.210;2022-08-21T04:43:16;7.33;;;5.23;;
9032;SDS011;4551;53.164;8.210;2022-08-21T04:45:46;7.17;;;5.20;;
9032;SDS011;4551;53.164;8.210;2022-08-21T04:48:17;6.10;;;4.80;;
9032;SDS011;4551;53.164;8.210;2022-08-21T04:50:48;10.23;;;5.50;;
9032;SDS011;4551;53.164;8.210;2022-08-21T04:53:22;5.77;;;5.07;;
9032;SDS011;4551;53.164;8.210;2022-08-21T04:55:53;7.57;;;5.37;;
9032;SDS011;4551;53.164;8.210;2022-08-21T04:58:23;6.10;;;5.53;;
9032;SDS011;4551;53.164;8.210;2022-08-21T05:00:54;7.43;;;5.47;;
9032;SDS011;4551;53.164;8.210;2022-08-21T05:03:25;6.17;;;5.40;;
9032;SDS011;4551;53.164;8.210;2022-08-21T05:05:53;11.00;;;5.90;;
9032;SDS011;4551;53.164;8.210;2022-08-21T05:08:23;8.20;;;5.70;;
9032;SDS011;4551;53.164;8.210;2022-08-21T05:10:54;6.77;;;6.07;;
9032;SDS011;4551;53.164;8.210;2022-08-21T05:13:26;6.43;;;5.90;;
9032;SDS011;4551;53.164;8.210;2022-08-21T05:15:55;6.90;;;5.70;;
9032;SDS011;4551;53.164;8.210;2022-08-21T05:18:23;6.73;;;6.03;;
9032;SDS011;4551;53.164;8.210;2022-08-21T05:20:51;6.00;;;5.50;;
9032;SDS011;4551;53.164;8.210;2022-08-21T05:23:20;8.10;;;6.20;;
9032;SDS011;4551;53.164;8.210;2022-08-21T05:25:49;9.53;;;5.97;;
9032;SDS011;4551;53.164;8.210;2022-08-21T05:28:17;7.23;;;6.20;;
9032;SDS011;4551;53.164;8.210;2022-08-21T05:30:46;7.70;;;6.97;;
9032;SDS011;4551;53.164;8.210;2022-08-21T05:33:15;9.20;;;6.60;;
9032;SDS011;4551;53.164;8.210;2022-08-21T05:35:43;8.20;;;7.33;;
9032;SDS011;4551;53.164;8.210;2022-08-21T05:38:11;7.67;;;6.27;;
9032;SDS011;4551;53.164;8.210;2022-08-21T05:40:46;8.63;;;6.70;;
9032;SDS011;4551;53.164;8.210;2022-08-21T05:43:16;7.13;;;6.37;;
9032;SDS011;4551;53.164;8.210;2022-08-21T05:45:44;8.30;;;6.33;;
9032;SDS011;4551;53.164;8.210;2022-08-21T05:48:16;8.90;;;6.90;;
9032;SDS011;4551;53.164;8.210;2022-08-21T05:50:46;8.93;;;6.67;;
9032;SDS011;4551;53.164;8.210;2022-08-21T05:53:16;8.40;;;6.50;;
9032;SDS011;4551;53.164;8.210;2022-08-21T05:55:46;10.60;;;6.70;;
9032;SDS011;4551;53.164;8.210;2022-08-21T05:58:17;8.83;;;6.60;;
9032;SDS011;4551;53.164;8.210;2022-08-21T06:00:47;8.43;;;6.93;;
9032;SDS011;4551;53.164;8.210;2022-08-21T06:03:18;9.87;;;6.70;;
9032;SDS011;4551;53.164;8.210;2022-08-21T06:05:47;10.90;;;7.70;;
9032;SDS011;4551;53.164;8.210;2022-08-21T06:08:16;11.00;;;7.33;;
9032;SDS011;4551;53.164;8.210;2022-08-21T06:10:45;8.73;;;6.87;;
9032;SDS011;4551;53.164;8.210;2022-08-21T06:13:16;9.93;;;6.83;;
9032;SDS011;4551;53.164;8.210;2022-08-21T06:15:45;7.33;;;6.50;;
9032;SDS011;4551;53.164;8.210;2022-08-21T06:18:14;10.03;;;6.33;;
9032;SDS011;4551;53.164;8.210;2022-08-21T06:20:42;10.57;;;6.23;;
9032;SDS011;4551;53.164;8.210;2022-08-21T06:23:11;10.27;;;6.67;;
9032;SDS011;4551;53.164;8.210;2022-08-21T06:25:39;8.70;;;7.30;;
9032;SDS011;4551;53.164;8.210;2022-08-21T06:28:08;7.67;;;6.00;;
9032;SDS011;4551;53.164;8.210;2022-08-21T06:30:38;10.97;;;7.30;;
9032;SDS011;4551;53.164;8.210;2022-08-21T06:33:07;10.00;;;6.40;;
9032;SDS011;4551;53.164;8.210;2022-08-21T06:35:35;10.03;;;6.20;;
9032;SDS011;4551;53.164;8.210;2022-08-21T06:38:07;11.47;;;6.53;;
9032;SDS011;4551;53.164;8.210;2022-08-21T06:40:35;8.90;;;6.10;;
9032;SDS011;4551;53.164;8.210;2022-08-21T06:43:10;8.00;;;5.80;;
9032;SDS011;4551;53.164;8.210;2022-08-21T06:45:42;12.23;;;6.00;;
9032;SDS011;4551;53.164;8.210;2022-08-21T06:48:11;7.53;;;6.10;;
9032;SDS011;4551;53.164;8.210;2022-08-21T06:50:45;11.07;;;5.67;;
9032;SDS011;4551;53.164;8.210;2022-08-21T06:53:14;5.80;;;5.30;;
9032;SDS011;4551;53.164;8.210;2022-08-21T06:55:45;10.47;;;5.30;;
9032;SDS011;4551;53.164;8.210;2022-08-21T06:58:15;9.70;;;5.53;;
9032;SDS011;4551;53.164;8.210;2022-08-21T07:00:45;9.50;;;5.50;;
9032;SDS011;4551;53.164;8.210;2022-08-21T07:03:18;8.17;;;5.17;;
9032;SDS011;4551;53.164;8.210;2022-08-21T07:05:47;7.90;;;5.23;;
9032;SDS011;4551;53.164;8.210;2022-08-21T07:08:16;8.33;;;4.80;;
9032;SDS011;4551;53.164;8.210;2022-08-21T07:10:44;9.83;;;5.27;;
9032;SDS011;4551;53.164;8.210;2022-08-21T07:13:13;8.87;;;4.83;;
9032;SDS011;4551;53.164;8.210;2022-08-21T07:15:42;6.17;;;4.43;;
9032;SDS011;4551;53.164;8.210;2022-08-21T07:18:14;7.53;;;5.20;;
9032;SDS011;4551;53.164;8.210;2022-08-21T07:20:43;10.83;;;5.97;;
9032;SDS011;4551;53.164;8.210;2022-08-21T07:23:14;6.87;;;4.47;;
9032;SDS011;4551;53.164;8.210;2022-08-21T07:25:49;9.50;;;4.30;;
9032;SDS011;4551;53.164;8.210;2022-08-21T07:28:17;7.00;;;4.30;;
9032;SDS011;4551;53.164;8.210;2022-08-21T07:30:45;8.60;;;4.83;;
9032;SDS011;4551;53.164;8.210;2022-08-21T07:33:19;4.30;;;3.90;;
9032;SDS011;4551;53.164;8.210;2022-08-21T07:35:47;5.73;;;4.17;;
9032;SDS011;4551;53.164;8.210;2022-08-21T07:38:15;5.77;;;4.17;;
9032;SDS011;4551;53.164;8.210;2022-08-21T07:40:44;6.70;;;4.80;;
9032;SDS011;4551;53.164;8.210;2022-08-21T07:43:13;6.10;;;3.70;;
9032;SDS011;4551;53.164;8.210;2022-08-21T07:45:43;6.40;;;4.30;;
9032;SDS011;4551;53.164;8.210;2022-08-21T07:48:12;6.20;;;4.33;;
9032;SDS011;4551;53.164;8.210;2022-08-21T07:50:42;4.40;;;4.03;;
9032;SDS011;4551;53.164;8.210;2022-08-21T07:53:10;8.77;;;4.07;;
9032;SDS011;4551;53.164;8.210;2022-08-21T07:55:38;6.97;;;3.67;;
9032;SDS011;4551;53.164;8.210;2022-08-21T07:58:06;7.20;;;3.63;;
9032;SDS011;4551;53.164;8.210;2022-08-21T08:00:35;6.03;;;4.17;;
9032;SDS011;4551;53.164;8.210;2022-08-21T08:03:03;5.27;;;3.23;;
9032;SDS011;4551;53.164;8.210;2022-08-21T08:05:32;6.73;;;4.10;;
9032;SDS011;4551;53.164;8.210;2022-08-21T08:08:04;9.40;;;3.70;;
9032;SDS011;4551;53.164;8.210;2022-08-21T08:10:33;4.67;;;3.07;;
9032;SDS011;4551;53.164;8.210;2022-08-21T08:13:01;5.57;;;3.40;;
9032;SDS011;4551;53.164;8.210;2022-08-21T08:15:30;5.73;;;3.80;;
9032;SDS011;4551;53.164;8.210;2022-08-21T08:18:03;4.97;;;3.07;;
9032;SDS011;4551;53.164;8.210;2022-08-21T08:20:31;6.73;;;3.00;;
9032;SDS011;4551;53.164;8.210;2022-08-21T08:22:59;8.67;;;3.40;;
9032;SDS011;4551;53.164;8.210;2022-08-21T08:25:29;5.23;;;3.33;;
9032;SDS011;4551;53.164;8.210;2022-08-21T08:28:03;5.60;;;2.90;;
9032;SDS011;4551;53.164;8.210;2022-08-21T08:30:42;6.77;;;3.33;;
9032;SDS011;4551;53.164;8.210;2022-08-21T08:33:11;6.67;;;3.13;;
9032;SDS011;4551;53.164;8.210;2022-08-21T08:35:39;8.60;;;3.47;;
9032;SDS011;4551;53.164;8.210;2022-08-21T08:38:08;5.30;;;3.20;;
9032;SDS011;4551;53.164;8.210;2022-08-21T08:40:39;7.67;;;3.30;;
9032;SDS011;4551;53.164;8.210;2022-08-21T08:43:11;6.93;;;3.70;;
9032;SDS011;4551;53.164;8.210;2022-08-21T08:45:40;8.63;;;4.00;;
9032;SDS011;4551;53.164;8.210;2022-08-21T08:48:14;8.23;;;3.73;;
9032;SDS011;4551;53.164;8.210;2022-08-21T08:50:59;5.60;;;3.53;;
9032;SDS011;4551;53.164;8.210;2022-08-21T08:53:30;7.40;;;4.30;;
9032;SDS011;4551;53.164;8.210;2022-08-21T08:56:02;10.47;;;4.70;;
9032;SDS011;4551;53.164;8.210;2022-08-21T08:58:33;10.40;;;3.90;;
9032;SDS011;4551;53.164;8.210;2022-08-21T09:01:05;7.90;;;3.93;;
9032;SDS011;4551;53.164;8.210;2022-08-21T09:03:40;8.33;;;3.83;;
9032;SDS011;4551;53.164;8.210;2022-08-21T09:06:10;7.10;;;3.63;;
9032;SDS011;4551;53.164;8.210;2022-08-21T09:08:47;9.30;;;3.53;;
9032;SDS011;4551;53.164;8.210;2022-08-21T09:11:26;3.63;;;2.70;;
9032;SDS011;4551;53.164;8.210;2022-08-21T09:14:01;6.77;;;3.33;;
9032;SDS011;4551;53.164;8.210;2022-08-21T09:16:40;5.50;;;3.20;;
9032;SDS011;4551;53.164;8.210;2022-08-21T09:19:22;9.73;;;4.10;;
9032;SDS011;4551;53.164;8.210;2022-08-21T09:22:03;8.83;;;3.30;;
9032;SDS011;4551;53.164;8.210;2022-08-21T09:24:39;8.90;;;2.90;;
9032;SDS011;4551;53.164;8.210;2022-08-21T09:27:19;4.77;;;2.70;;
9032;SDS011;4551;53.164;8.210;2022-08-21T09:29:49;3.80;;;2.40;;
9032;SDS011;4551;53.164;8.210;2022-08-21T09:32:21;4.57;;;2.77;;
9032;SDS011;4551;53.164;8.210;2022-08-21T09:35:04;3.73;;;2.30;;
9032;SDS011;4551;53.164;8.210;2022-08-21T09:37:44;4.67;;;2.23;;
9032;SDS011;4551;53.164;8.210;2022-08-21T09:40:18;6.07;;;2.80;;
9032;SDS011;4551;53.164;8.210;2022-08-21T09:43:00;5.67;;;2.60;;
9032;SDS011;4551;53.164;8.210;2022-08-21T09:45:30;10.30;;;2.60;;
9032;SDS011;4551;53.164;8.210;2022-08-21T09:48:09;6.33;;;2.37;;
9032;SDS011;4551;53.164;8.210;2022-08-21T09:50:39;5.77;;;2.43;;
9032;SDS011;4551;53.164;8.210;2022-08-21T09:53:14;9.17;;;2.43;;
9032;SDS011;4551;53.164;8.210;2022-08-21T09:55:49;6.37;;;2.40;;
9032;SDS011;4551;53.164;8.210;2022-08-21T09:58:51;6.07;;;2.27;;
9032;SDS011;4551;53.164;8.210;2022-08-21T10:01:20;4.80;;;2.30;;
9032;SDS011;4551;53.164;8.210;2022-08-21T10:04:01;3.53;;;2.33;;
9032;SDS011;4551;53.164;8.210;2022-08-21T10:06:30;9.00;;;2.60;;
9032;SDS011;4551;53.164;8.210;2022-08-21T10:09:05;5.87;;;2.67;;
9032;SDS011;4551;53.164;8.210;2022-08-21T10:11:43;5.60;;;2.70;;
9032;SDS011;4551;53.164;8.210;2022-08-21T10:14:24;4.47;;;1.93;;
9032;SDS011;4551;53.164;8.210;2022-08-21T10:17:11;7.07;;;2.50;;
9032;SDS011;4551;53.164;8.210;2022-08-21T10:19:48;5.23;;;1.90;;
9032;SDS011;4551;53.164;8.210;2022-08-21T10:22:24;6.10;;;3.57;;
9032;SDS011;4551;53.164;8.210;2022-08-21T10:25:02;4.30;;;2.33;;
9032;SDS011;4551;53.164;8.210;2022-08-21T10:27:41;4.90;;;2.50;;
9032;SDS011;4551;53.164;8.210;2022-08-21T10:30:24;3.93;;;2.43;;
9032;SDS011;4551;53.164;8.210;2022-08-21T10:33:04;4.47;;;2.47;;
9032;SDS011;4551;53.164;8.210;2022-08-21T10:35:42;8.00;;;3.47;;
9032;SDS011;4551;53.164;8.210;2022-08-21T10:41:52;5.37;;;2.10;;
9032;SDS011;4551;53.164;8.210;2022-08-21T10:44:47;3.77;;;2.30;;
9032;SDS011;4551;53.164;8.210;2022-08-21T10:47:26;5.07;;;2.30;;
9032;SDS011;4551;53.164;8.210;2022-08-21T10:50:02;4.33;;;2.37;;
9032;SDS011;4551;53.164;8.210;2022-08-21T10:52:45;3.80;;;1.93;;
9032;SDS011;4551;53.164;8.210;2022-08-21T10:55:31;4.23;;;1.87;;
9032;SDS011;4551;53.164;8.210;2022-08-21T10:58:04;4.43;;;2.30;;
9032;SDS011;4551;53.164;8.210;2022-08-21T11:00:40;4.13;;;2.10;;
9032;SDS011;4551;53.164;8.210;2022-08-21T11:03:16;4.77;;;2.07;;
9032;SDS011;4551;53.164;8.210;2022-08-21T11:05:50;3.53;;;1.87;;
9032;SDS011;4551;53.164;8.210;2022-08-21T11:08:21;2.40;;;1.90;;
9032;SDS011;4551;53.164;8.210;2022-08-21T11:10:55;2.73;;;1.70;;
9032;SDS011;4551;53.164;8.210;2022-08-21T11:13:38;3.03;;;2.00;;
9032;SDS011;4551;53.164;8.210;2022-08-21T11:16:12;2.80;;;1.90;;
9032;SDS011;4551;53.164;8.210;2022-08-21T11:18:50;5.23;;;2.20;;
9032;SDS011;4551;53.164;8.210;2022-08-21T11:21:27;3.83;;;2.33;;
9032;SDS011;4551;53.164;8.210;2022-08-21T11:24:02;7.30;;;2.50;;
9032;SDS011;4551;53.164;8.210;2022-08-21T11:26:39;2.47;;;1.77;;
9032;SDS011;4551;53.164;8.210;2022-08-21T11:29:17;3.90;;;2.30;;
9032;SDS011;4551;53.164;8.210;2022-08-21T11:31:53;3.50;;;2.00;;
9032;SDS011;4551;53.164;8.210;2022-08-21T11:34:46;2.93;;;1.63;;
9032;SDS011;4551;53.164;8.210;2022-08-21T11:37:27;4.40;;;2.03;;
9032;SDS011;4551;53.164;8.210;2022-08-21T11:40:11;3.23;;;2.03;;
9032;SDS011;4551;53.164;8.210;2022-08-21T11:42:47;3.23;;;1.70;;
9032;SDS011;4551;53.164;8.210;2022-08-21T11:45:30;2.70;;;1.83;;
9032;SDS011;4551;53.164;8.210;2022-08-21T11:48:06;5.30;;;2.47;;
9032;SDS011;4551;53.164;8.210;2022-08-21T11:50:45;3.50;;;2.30;;
9032;SDS011;4551;53.164;8.210;2022-08-21T11:53:17;4.30;;;1.90;;
9032;SDS011;4551;53.164;8.210;2022-08-21T11:56:01;2.73;;;1.90;;
9032;SDS011;4551;53.164;8.210;2022-08-21T11:58:35;6.73;;;2.33;;
9032;SDS011;4551;53.164;8.210;2022-08-21T12:01:07;4.10;;;2.00;;
9032;SDS011;4551;53.164;8.210;2022-08-21T12:03:40;4.47;;;1.93;;
9032;SDS011;4551;53.164;8.210;2022-08-21T12:06:12;3.23;;;1.70;;
9032;SDS011;4551;53.164;8.210;2022-08-21T12:08:56;5.77;;;2.10;;
9032;SDS011;4551;53.164;8.210;2022-08-21T12:11:26;4.10;;;1.80;;
9032;SDS011;4551;53.164;8.210;2022-08-21T12:13:57;5.03;;;2.07;;
9032;SDS011;4551;53.164;8.210;2022-08-21T12:16:28;4.50;;;2.13;;
9032;SDS011;4551;53.164;8.210;2022-08-21T12:19:02;3.27;;;2.10;;
9032;SDS011;4551;53.164;8.210;2022-08-21T12:21:34;2.03;;;1.40;;
9032;SDS011;4551;53.164;8.210;2022-08-21T12:24:19;4.17;;;2.10;;
9032;SDS011;4551;53.164;8.210;2022-08-21T12:27:00;3.67;;;2.00;;
9032;SDS011;4551;53.164;8.210;2022-08-21T12:29:45;2.27;;;1.73;;
9032;SDS011;4551;53.164;8.210;2022-08-21T12:32:25;3.13;;;1.70;;
9032;SDS011;4551;53.164;8.210;2022-08-21T12:34:55;1.90;;;1.50;;
9032;SDS011;4551;53.164;8.210;2022-08-21T12:37:41;2.33;;;1.63;;
9032;SDS011;4551;53.164;8.210;2022-08-21T12:40:14;4.73;;;1.73;;
9032;SDS011;4551;53.164;8.210;2022-08-21T12:42:49;3.53;;;1.60;;
9032;SDS011;4551;53.164;8.210;2022-08-21T12:45:26;3.87;;;1.70;;
9032;SDS011;4551;53.164;8.210;2022-08-21T12:47:59;2.23;;;1.80;;
9032;SDS011;4551;53.164;8.210;2022-08-21T12:50:35;4.23;;;1.63;;
9032;SDS011;4551;53.164;8.210;2022-08-21T12:53:07;2.63;;;1.50;;
9032;SDS011;4551;53.164;8.210;2022-08-21T12:55:46;3.43;;;1.77;;
9032;SDS011;4551;53.164;8.210;2022-08-21T12:58:18;3.43;;;2.00;;
9032;SDS011;4551;53.164;8.210;2022-08-21T13:00:48;1.80;;;1.70;;
9032;SDS011;4551;53.164;8.210;2022-08-21T13:03:17;2.93;;;1.73;;
9032;SDS011;4551;53.164;8.210;2022-08-21T13:05:46;3.70;;;1.60;;
9032;SDS011;4551;53.164;8.210;2022-08-21T13:08:16;3.40;;;3.00;;
9032;SDS011;4551;53.164;8.210;2022-08-21T13:10:47;2.37;;;1.60;;
9032;SDS011;4551;53.164;8.210;2022-08-21T13:13:24;3.80;;;1.80;;
9032;SDS011;4551;53.164;8.210;2022-08-21T13:15:57;2.20;;;1.40;;
9032;SDS011;4551;53.164;8.210;2022-08-21T13:18:29;2.93;;;1.60;;
9032;SDS011;4551;53.164;8.210;2022-08-21T13:21:04;3.93;;;1.63;;
9032;SDS011;4551;53.164;8.210;2022-08-21T13:23:36;3.77;;;1.53;;
9032;SDS011;4551;53.164;8.210;2022-08-21T13:26:11;1.67;;;1.47;;
9032;SDS011;4551;53.164;8.210;2022-08-21T13:28:44;2.47;;;2.03;;
9032;SDS011;4551;53.164;8.210;2022-08-21T13:31:16;3.30;;;1.53;;
9032;SDS011;4551;53.164;8.210;2022-08-21T13:33:48;2.63;;;1.70;;
9032;SDS011;4551;53.164;8.210;2022-08-21T13:36:18;1.43;;;1.33;;
9032;SDS011;4551;53.164;8.210;2022-08-21T13:38:53;2.37;;;1.80;;
9032;SDS011;4551;53.164;8.210;2022-08-21T13:41:23;2.40;;;1.40;;
9032;SDS011;4551;53.164;8.210;2022-08-21T13:43:56;1.93;;;1.30;;
9032;SDS011;4551;53.164;8.210;2022-08-21T13:46:26;2.17;;;1.40;;
9032;SDS011;4551;53.164;8.210;2022-08-21T13:48:58;2.40;;;1.20;;
9032;SDS011;4551;53.164;8.210;2022-08-21T13:51:27;2.27;;;1.33;;
9032;SDS011;4551;53.164;8.210;2022-08-21T13:53:58;1.87;;;1.20;;
9032;SDS011;4551;53.164;8.210;2022-08-21T13:56:28;2.10;;;1.50;;
9032;SDS011;4551;53.164;8.210;2022-08-21T13:59:00;3.90;;;1.47;;
9032;SDS011;4551;53.164;8.210;2022-08-21T14:01:30;2.50;;;1.60;;
9032;SDS011;4551;53.164;8.210;2022-08-21T14:04:01;3.50;;;1.60;;
9032;SDS011;4551;53.164;8.210;2022-08-21T14:06:32;3.47;;;2.40;;
9032;SDS011;4551;53.164;8.210;2022-08-21T14:09:09;2.20;;;1.20;;
9032;SDS011;4551;53.164;8.210;2022-08-21T14:11:39;1.50;;;1.30;;
9032;SDS011;4551;53.164;8.210;2022-08-21T14:14:12;2.25;;;1.33;;
9032;SDS011;4551;53.164;8.210;2022-08-21T14:16:52;1.00;;;1.00;;
9032;SDS011;4551;53.164;8.210;2022-08-21T14:19:22;1.40;;;1.30;;
9032;SDS011;4551;53.164;8.210;2022-08-21T14:21:51;4.38;;;1.38;;
9032;SDS011;4551;53.164;8.210;2022-08-21T14:24:27;1.40;;;1.30;;
9032;SDS011;4551;53.164;8.210;2022-08-21T14:27:02;3.08;;;1.40;;
9032;SDS011;4551;53.164;8.210;2022-08-21T14:29:33;1.58;;;1.42;;
9032;SDS011;4551;53.164;8.210;2022-08-21T14:32:08;1.47;;;1.30;;
9032;SDS011;4551;53.164;8.210;2022-08-21T14:34:50;2.92;;;1.60;;
9032;SDS011;4551;53.164;8.210;2022-08-21T14:37:20;2.67;;;1.50;;
9032;SDS011;4551;53.164;8.210;2022-08-21T14:39:50;3.27;;;1.60;;
9032;SDS011;4551;53.164;8.210;2022-08-21T14:42:18;1.73;;;1.63;;
9032;SDS011;4551;53.164;8.210;2022-08-21T14:44:46;2.40;;;1.50;;
9032;SDS011;4551;53.164;8.210;2022-08-21T14:47:15;2.27;;;1.50;;
9032;SDS011;4551;53.164;8.210;2022-08-21T14:49:43;1.53;;;1.30;;
9032;SDS011;4551;53.164;8.210;2022-08-21T14:52:11;1.57;;;1.40;;
9032;SDS011;4551;53.164;8.210;2022-08-21T14:54:39;2.33;;;1.37;;
9032;SDS011;4551;53.164;8.210;2022-08-21T14:57:10;2.63;;;1.43;;
9032;SDS011;4551;53.164;8.210;2022-08-21T14:59:39;2.53;;;1.30;;
9032;SDS011;4551;53.164;8.210;2022-08-21T15:02:08;3.70;;;1.85;;
9032;SDS011;4551;53.164;8.210;2022-08-21T15:04:36;1.38;;;1.25;;
9032;SDS011;4551;53.164;8.210;2022-08-21T15:07:04;1.38;;;1.02;;
9032;SDS011;4551;53.164;8.210;2022-08-21T15:09:33;1.92;;;1.27;;
9032;SDS011;4551;53.164;8.210;2022-08-21T15:12:01;2.75;;;1.10;;
9032;SDS011;4551;53.164;8.210;2022-08-21T15:14:32;1.65;;;1.20;;
9032;SDS011;4551;53.164;8.210;2022-08-21T15:17:03;2.33;;;1.30;;
9032;SDS011;4551;53.164;8.210;2022-08-21T15:19:32;3.08;;;1.48;;
9032;SDS011;4551;53.164;8.210;2022-08-21T15:22:01;2.35;;;1.50;;
9032;SDS011;4551;53.164;8.210;2022-08-21T15:24:30;1.88;;;1.50;;
9032;SDS011;4551;53.164;8.210;2022-08-21T15:26:59;1.20;;;1.00;;
9032;SDS011;4551;53.164;8.210;2022-08-21T15:29:29;2.15;;;1.90;;
9032;SDS011;4551;53.164;8.210;2022-08-21T15:32:00;2.28;;;1.40;;
9032;SDS011;4551;53.164;8.210;2022-08-21T15:34:30;3.22;;;1.40;;
9032;SDS011;4551;53.164;8.210;2022-08-21T15:36:59;1.58;;;1.30;;
9032;SDS011;4551;53.164;8.210;2022-08-21T15:39:27;2.40;;;1.40;;
9032;SDS011;4551;53.164;8.210;2022-08-21T15:42:02;5.47;;;1.52;;
9032;SDS011;4551;53.164;8.210;2022-08-21T15:44:36;2.45;;;1.55;;
9032;SDS011;4551;53.164;8.210;2022-08-21T15:47:07;1.67;;;1.10;;